Time;durP1;ratioP1;P1;durP2;ratioP2;P2;SDS_P1;SDS_P2;PMS_P1;PMS_P2;Temp;Humidity;BMP_temperature;BMP_pressure;BME280_temperature;BME280_humidity;BME280_pressure;Samples;Min_cycle;Max_cycle;Signal;HPM_P1;HPM_P2
2022/02/10 00:15:12;;;;;;;52.78;28.85;;;;;;;2.73;100.00;101161.28;5115057;28;20047;-81
2022/02/10 00:17:46;;;;;;;54.72;29.77;;;;;;;2.71;100.00;101170.13;5115030;28;20127;-81
2022/02/10 00:20:23;;;;;;;51.22;29.50;;;;;;;2.62;100.00;101179.00;5114667;28;20477;-79
2022/02/10 00:23:16;;;;;;;52.85;29.17;;;;;;;2.57;100.00;101179.06;5117882;28;20134;-75
2022/02/10 00:34:16;;;;;;;48.78;26.95;;;;;;;2.69;100.00;101188.56;5114786;28;20040;-86
2022/02/10 00:36:55;;;;;;;53.15;27.67;;;;;;;2.59;100.00;101186.94;5115133;28;20075;-81
2022/02/10 00:39:36;;;;;;;50.47;27.48;;;;;;;2.57;100.00;101181.69;5114556;28;20047;-81
2022/02/10 00:42:05;;;;;;;50.33;28.00;;;;;;;2.51;100.00;101184.41;5114684;28;20044;-80
2022/02/10 00:44:34;;;;;;;52.40;28.27;;;;;;;2.48;100.00;101184.44;5096525;28;20095;-80
2022/02/10 00:47:02;;;;;;;47.80;26.80;;;;;;;2.66;100.00;101185.09;5114125;28;20378;-79
2022/02/10 00:49:32;;;;;;;48.83;25.88;;;;;;;2.87;100.00;101183.03;5114173;28;20044;-78
2022/02/10 00:52:03;;;;;;;47.97;25.98;;;;;;;2.91;100.00;101183.88;5114370;28;20126;-80
2022/02/10 00:54:35;;;;;;;47.13;26.52;;;;;;;2.78;100.00;101187.56;5114188;28;20039;-80
2022/02/10 00:57:07;;;;;;;48.55;27.77;;;;;;;2.65;100.00;101194.75;5114377;28;20047;-80
2022/02/10 00:59:47;;;;;;;49.65;26.70;;;;;;;2.73;100.00;101198.19;5114226;28;20044;-80
2022/02/10 01:10:43;;;;;;;50.80;26.02;;;;;;;2.55;100.00;101187.88;5114110;28;20388;-83
2022/02/10 01:13:26;;;;;;;43.05;25.60;;;;;;;2.42;100.00;101187.16;5095569;28;20059;-83
2022/02/10 01:24:32;;;;;;;48.63;25.77;;;;;;;2.13;100.00;101174.31;5113551;28;20047;-80
2022/02/10 01:29:47;;;;;;;51.50;26.40;;;;;;;2.11;100.00;101168.19;5113373;28;20047;-80
2022/02/10 01:32:17;;;;;;;52.08;26.60;;;;;;;2.08;100.00;101173.50;5113135;28;20075;-80
2022/02/10 01:34:49;;;;;;;51.90;27.90;;;;;;;2.04;100.00;101169.16;5095160;28;20060;-81
2022/02/10 01:37:19;;;;;;;50.70;27.08;;;;;;;2.02;100.00;101168.28;5095429;28;20066;-81
2022/02/10 01:39:51;;;;;;;52.05;27.55;;;;;;;1.98;100.00;101172.72;5113414;28;20047;-81
2022/02/10 01:43:24;;;;;;;58.20;28.60;;;;;;;1.93;100.00;101177.16;5113966;28;20377;-78
2022/02/10 02:05:18;;;;;;;53.22;28.25;;;;;;;1.72;100.00;101169.47;5113151;28;20040;-79
2022/02/10 02:07:47;;;;;;;56.50;28.40;;;;;;;1.77;100.00;101161.53;5113409;28;20453;-79
2022/02/10 02:10:16;;;;;;;48.17;28.05;;;;;;;1.78;100.00;101161.53;5113000;28;20078;-78
2022/02/10 02:12:48;;;;;;;53.85;28.42;;;;;;;1.81;100.00;101165.88;5113334;28;20036;-76
2022/02/10 02:15:17;;;;;;;51.97;27.95;;;;;;;1.79;100.00;101167.66;5113069;28;20041;-75
2022/02/10 02:17:45;;;;;;;51.30;28.95;;;;;;;1.75;100.00;101172.09;5095232;28;20056;-77
2022/02/10 02:20:13;;;;;;;49.15;27.15;;;;;;;1.93;100.00;101165.75;5113008;28;20487;-78
2022/02/10 02:22:43;;;;;;;49.17;28.48;;;;;;;1.98;100.00;101151.66;5112920;28;20164;-79
2022/02/10 02:25:12;;;;;;;51.25;27.33;;;;;;;1.84;100.00;101164.09;5112605;28;20048;-80
2022/02/10 02:27:45;;;;;;;50.63;27.25;;;;;;;1.89;100.00;101154.38;5113272;28;20044;-79
2022/02/10 02:30:23;;;;;;;45.88;27.30;;;;;;;1.91;100.00;101157.00;5112663;28;20043;-78
2022/02/10 02:33:36;;;;;;;47.63;27.00;;;;;;;1.82;100.00;101167.63;5114161;28;20048;-79
2022/02/10 02:36:20;;;;;;;47.95;25.70;;;;;;;1.80;100.00;101151.84;5116948;28;20085;-78
2022/02/10 02:39:12;;;;;;;44.25;24.85;;;;;;;2.10;100.00;101152.41;5116742;28;20126;-78
2022/02/10 03:04:27;;;;;;;42.58;26.00;;;;;;;2.22;100.00;101125.94;5116556;28;20118;-75
2022/02/10 03:07:00;;;;;;;43.15;24.92;;;;;;;2.18;100.00;101129.50;5116499;28;20538;-75
2022/02/10 03:09:28;;;;;;;44.50;24.88;;;;;;;2.34;100.00;101130.22;5115840;28;20395;-75
2022/02/10 03:12:00;;;;;;;40.15;23.50;;;;;;;2.28;100.00;101142.53;5116427;28;20036;-75
2022/02/10 03:14:32;;;;;;;39.60;24.50;;;;;;;2.16;100.00;101137.44;5116060;28;20043;-77
2022/02/10 03:17:35;;;;;;;44.87;23.40;;;;;;;2.06;100.00;101141.06;5116550;28;20054;-77
2022/02/10 03:20:18;;;;;;;47.33;25.05;;;;;;;1.82;100.00;101157.97;5116397;28;20047;-77
2022/02/10 03:59:38;;;;;;;50.13;26.60;;;;;;;1.68;100.00;101150.22;5116292;28;20040;-77
2022/02/10 04:02:14;;;;;;;56.22;29.95;;;;;;;1.29;100.00;101153.19;5115092;28;20055;-78
2022/02/10 04:07:57;;;;;;;48.97;27.52;;;;;;;1.27;100.00;101144.47;5040043;28;20443;-80
2022/02/10 04:10:44;;;;;;;48.10;25.58;;;;;;;1.30;100.00;101150.56;5115039;28;20073;-80
2022/02/10 04:13:22;;;;;;;46.10;25.83;;;;;;;1.35;100.00;101140.88;5115095;28;20043;-78
2022/02/10 04:15:57;;;;;;;42.45;23.95;;;;;;;1.40;100.00;101140.84;5115219;28;20044;-79
2022/02/10 04:21:37;;;;;;;47.17;27.52;;;;;;;1.54;100.00;101132.81;5114608;28;20400;-78
2022/02/10 04:27:01;;;;;;;47.33;24.30;;;;;;;1.41;100.00;101137.31;5109468;28;20051;-80
2022/02/10 04:30:11;;;;;;;43.78;24.70;;;;;;;1.31;100.00;101140.91;5114491;28;20096;-78
2022/02/10 04:44:21;;;;;;;47.15;27.20;;;;;;;1.10;100.00;101145.44;5114469;28;20073;-79
2022/02/10 04:55:46;;;;;;;39.13;24.67;;;;;;;1.35;100.00;101147.88;5114257;28;20048;-80
2022/02/10 04:58:35;;;;;;;42.60;25.23;;;;;;;1.27;100.00;101152.34;5114746;28;20043;-77
2022/02/10 05:01:19;;;;;;;46.03;26.73;;;;;;;1.05;100.00;101148.97;5114081;28;20067;-77
2022/02/10 05:04:23;;;;;;;46.53;26.75;;;;;;;1.06;100.00;101154.25;5113891;28;20051;-77
2022/02/10 05:07:33;;;;;;;46.55;25.95;;;;;;;1.32;100.00;101158.41;5114372;28;20051;-77
2022/02/10 05:21:21;;;;;;;52.50;27.38;;;;;;;1.05;100.00;101168.25;5038377;28;20062;-79
2022/02/10 05:24:10;;;;;;;47.58;28.35;;;;;;;0.98;100.00;101178.81;5114347;28;20055;-78
2022/02/10 05:32:38;;;;;;;49.72;26.38;;;;;;;0.82;100.00;101172.78;5113529;28;20396;-75
2022/02/10 05:35:20;;;;;;;55.40;28.85;;;;;;;0.92;100.00;101174.47;5113926;28;20040;-79
2022/02/10 05:37:52;;;;;;;49.53;26.83;;;;;;;0.95;100.00;101166.56;5113353;28;20043;-79
2022/02/10 05:40:40;;;;;;;54.67;28.15;;;;;;;0.90;100.00;101173.63;5113742;28;20097;-78
2022/02/10 05:43:28;;;;;;;50.67;26.90;;;;;;;0.87;100.00;101178.91;5113832;28;20124;-79
2022/02/10 05:46:12;;;;;;;47.67;27.35;;;;;;;0.95;100.00;101182.31;5113063;28;20049;-79
2022/02/10 05:54:36;;;;;;;46.22;25.95;;;;;;;1.10;100.00;101182.25;5072282;28;20047;-78
2022/02/10 05:57:15;;;;;;;50.30;26.92;;;;;;;1.13;100.00;101176.94;5113152;28;20067;-78
2022/02/10 06:00:12;;;;;;;42.95;24.83;;;;;;;1.02;100.00;101181.41;5113166;28;20044;-78
2022/02/10 06:38:04;;;;;;;48.63;27.20;;;;;;;0.77;100.00;101185.94;5112685;28;20085;-78
2022/02/10 06:53:02;;;;;;;57.85;31.83;;;;;;;1.17;100.00;101171.69;5110702;28;20051;-78
2022/02/10 06:56:04;;;;;;;55.80;30.20;;;;;;;1.24;100.00;101173.38;5115932;28;20043;-74
2022/02/10 07:02:43;;;;;;;56.53;29.38;;;;;;;1.58;100.00;101169.59;5116382;28;20040;-79
2022/02/10 07:52:23;;;;;;;42.70;22.95;;;;;;;3.26;100.00;101140.28;5108753;28;20087;-77
2022/02/10 07:55:15;;;;;;;38.83;22.67;;;;;;;3.41;100.00;101134.78;5114162;28;20127;-76
2022/02/10 07:57:54;;;;;;;40.80;24.53;;;;;;;3.49;100.00;101134.66;5113568;28;20493;-76
2022/02/10 08:00:37;;;;;;;40.88;24.50;;;;;;;3.53;100.00;101125.78;5114525;28;20508;-77
2022/02/10 08:50:34;;;;;;;24.85;17.02;;;;;;;4.55;100.00;101079.75;5113315;28;20044;-79
2022/02/10 08:55:56;;;;;;;29.25;18.77;;;;;;;4.91;100.00;101079.78;5113231;28;20078;-84
2022/02/10 09:01:36;;;;;;;25.80;16.05;;;;;;;5.26;100.00;101070.13;5113677;28;20043;-75
2022/02/10 09:04:19;;;;;;;29.15;16.85;;;;;;;5.40;100.00;101063.59;5115034;28;20358;-85
2022/02/10 09:07:09;;;;;;;28.20;17.52;;;;;;;5.25;100.00;101060.47;5096189;28;20060;-80
2022/02/10 09:12:59;;;;;;;32.72;18.70;;;;;;;5.20;100.00;101084.38;5076988;28;20153;-75
2022/02/10 09:21:37;;;;;;;25.25;15.50;;;;;;;5.37;100.00;101071.59;5096010;28;20485;-72
2022/02/10 10:01:24;;;;;;;14.82;9.48;;;;;;;7.02;100.00;101047.34;5092044;28;20044;-78
2022/02/10 10:03:58;;;;;;;15.23;9.75;;;;;;;6.95;100.00;101043.16;5092567;28;20044;-77
2022/02/10 10:06:56;;;;;;;15.77;10.25;;;;;;;6.99;100.00;101039.50;5089022;28;20134;-76
2022/02/10 10:09:38;;;;;;;14.13;9.30;;;;;;;6.91;100.00;101038.88;5112962;28;20093;-78
2022/02/10 10:15:25;;;;;;;15.32;9.57;;;;;;;6.93;100.00;101031.75;5078910;28;20105;-76
2022/02/10 10:24:15;;;;;;;;;;;;;;;6.93;100.00;101032.63;5111116;28;20407;-75
2022/02/10 10:27:09;;;;;;;15.88;9.63;;;;;;;7.40;100.00;101012.44;5112227;28;20322;-75
2022/02/10 10:52:43;;;;;;;16.52;9.63;;;;;;;7.66;100.00;100969.03;5112200;28;20119;-75
2022/02/10 10:57:55;;;;;;;12.73;8.85;;;;;;;7.59;100.00;100977.28;5113126;28;20070;-75
2022/02/10 11:00:37;;;;;;;14.18;9.30;;;;;;;7.77;100.00;100965.97;5116156;28;20123;-75
2022/02/10 11:38:30;;;;;;;12.13;8.23;;;;;;;8.55;100.00;100894.69;5115202;28;20067;-78
2022/02/10 11:44:25;;;;;;;13.52;8.15;;;;;;;8.68;100.00;100888.84;5115251;28;20065;-79
2022/02/10 12:36:46;;;;;;;18.15;11.65;;;;;;;9.36;100.00;100819.31;5113689;28;20044;-76
2022/02/10 14:10:25;;;;;;;15.85;8.95;;;;;;;9.92;100.00;100721.63;5092668;28;20093;-79
2022/02/10 14:12:56;;;;;;;15.00;8.63;;;;;;;10.04;99.67;100710.34;5092380;28;20043;-81
2022/02/10 14:15:39;;;;;;;14.98;9.13;;;;;;;9.92;100.00;100717.16;5094296;28;20044;-79
2022/02/10 14:18:22;;;;;;;14.68;9.13;;;;;;;10.11;100.00;100716.22;5112366;28;20054;-81
2022/02/10 14:20:59;;;;;;;14.70;9.18;;;;;;;9.86;100.00;100713.94;5094844;28;20048;-79
2022/02/10 14:26:45;;;;;;;14.00;8.70;;;;;;;9.88;100.00;100717.38;5112041;28;20051;-79
2022/02/10 14:29:13;;;;;;;14.23;7.85;;;;;;;9.79;100.00;100712.53;5114070;28;20048;-80
2022/02/10 14:31:44;;;;;;;15.85;8.10;;;;;;;9.66;100.00;100710.47;5116109;28;20040;-78
2022/02/10 14:34:22;;;;;;;13.93;7.80;;;;;;;9.50;100.00;100704.16;5116607;28;20055;-79
2022/02/10 14:36:59;;;;;;;13.13;8.10;;;;;;;9.52;100.00;100694.28;5115944;28;20416;-77
2022/02/10 14:39:53;;;;;;;13.30;7.47;;;;;;;9.66;100.00;100704.28;5115932;28;20044;-79
2022/02/10 15:22:02;;;;;;;11.05;6.53;;;;;;;9.48;100.00;100721.16;5114989;28;20473;-78
2022/02/10 15:36:34;;;;;;;13.25;6.72;;;;;;;9.13;100.00;100716.56;5094928;28;20485;-76
2022/02/10 16:16:07;;;;;;;15.43;8.18;;;;;;;8.13;100.00;100710.41;5106075;28;20036;-76
2022/02/10 16:18:19;;;;;;;17.77;8.45;;;;;;;8.04;100.00;100715.19;5111980;28;20032;-75
2022/02/10 16:20:58;;;;;;;16.73;8.55;;;;;;;8.09;100.00;100699.03;5114126;28;20044;-75
2022/02/10 16:23:29;;;;;;;16.02;8.40;;;;;;;7.89;100.00;100702.53;5114216;28;20423;-78
2022/02/10 16:26:10;;;;;;;15.55;7.97;;;;;;;7.78;100.00;100710.09;5114043;28;20044;-74
2022/02/10 16:28:41;;;;;;;14.35;8.02;;;;;;;7.69;100.00;100706.03;5111073;28;20492;-75
2022/02/10 16:31:11;;;;;;;16.75;10.07;;;;;;;7.65;100.00;100708.88;5112224;28;20059;-75
2022/02/10 16:33:47;;;;;;;22.00;10.18;;;;;;;7.56;100.00;100698.63;5112683;28;20047;-75
2022/02/10 16:36:30;;;;;;;23.23;10.93;;;;;;;7.56;100.00;100699.50;5113863;28;20051;-75
2022/02/10 16:39:04;;;;;;;19.30;9.65;;;;;;;7.55;100.00;100702.22;5113732;28;20043;-76
2022/02/10 16:41:38;;;;;;;18.30;9.02;;;;;;;7.62;100.00;100695.72;5113836;28;20040;-76
2022/02/10 16:44:13;;;;;;;16.08;8.20;;;;;;;7.79;100.00;100690.56;5114263;28;20525;-75
2022/02/10 16:46:47;;;;;;;16.30;8.60;;;;;;;7.74;100.00;100681.97;5112557;28;20056;-75
2022/02/10 16:49:17;;;;;;;17.95;8.98;;;;;;;7.63;100.00;100697.47;5114136;28;20039;-75
2022/02/10 16:51:51;;;;;;;15.05;8.52;;;;;;;7.53;100.00;100699.63;5113087;28;20055;-75
2022/02/10 16:54:30;;;;;;;14.15;8.77;;;;;;;7.36;100.00;100683.53;5113742;28;20469;-76
2022/02/10 16:57:08;;;;;;;18.48;9.20;;;;;;;7.35;100.00;100703.88;5113489;28;20533;-75
2022/02/10 16:59:50;;;;;;;16.80;8.77;;;;;;;7.26;100.00;100708.69;5113419;28;20176;-75
2022/02/10 17:02:47;;;;;;;22.63;9.80;;;;;;;7.19;100.00;100705.41;5114353;28;20366;-76
2022/02/10 17:14:09;;;;;;;22.50;10.35;;;;;;;7.17;100.00;100712.56;5113433;28;20040;-78
2022/02/10 17:19:59;;;;;;;17.45;9.57;;;;;;;7.15;100.00;100711.78;5112779;28;20058;-75
2022/02/10 17:25:24;;;;;;;19.75;9.55;;;;;;;7.23;100.00;100711.44;5088226;28;20051;-76
2022/02/10 17:27:58;;;;;;;19.15;9.82;;;;;;;7.17;100.00;100712.56;5112798;28;20042;-75
2022/02/10 17:31:09;;;;;;;21.25;9.80;;;;;;;7.09;100.00;100717.31;5112789;28;20135;-74
2022/02/10 17:33:51;;;;;;;19.55;9.63;;;;;;;7.07;100.00;100720.00;5113676;28;20046;-75
2022/02/10 17:36:30;;;;;;;20.77;10.53;;;;;;;7.04;100.00;100713.94;5113756;28;20062;-76
2022/02/10 17:44:49;;;;;;;19.05;9.52;;;;;;;7.00;100.00;100709.69;5112413;28;20489;-75
2022/02/10 17:53:00;;;;;;;18.85;9.23;;;;;;;7.14;100.00;100707.34;5113337;28;20047;-74
2022/02/10 17:55:31;;;;;;;20.13;10.35;;;;;;;6.98;100.00;100701.78;5113449;28;20040;-74
2022/02/10 17:58:02;;;;;;;17.10;9.95;;;;;;;6.88;100.00;100695.13;5111287;28;20392;-74
2022/02/10 18:00:31;;;;;;;20.48;10.52;;;;;;;6.81;100.00;100698.91;5113656;28;20051;-85
2022/02/10 18:03:01;;;;;;;22.60;10.48;;;;;;;6.81;100.00;100699.78;5114213;28;20373;-82
2022/02/10 18:06:04;;;;;;;18.77;9.77;;;;;;;6.76;100.00;100700.88;5116780;28;20040;-81
2022/02/10 18:08:33;;;;;;;18.42;10.07;;;;;;;6.71;100.00;100700.19;5116280;28;20134;-88
2022/02/10 18:13:53;;;;;;;18.40;9.32;;;;;;;6.66;100.00;100700.38;5115855;28;20059;-80
2022/02/10 18:16:28;;;;;;;18.55;8.88;;;;;;;6.64;100.00;100694.22;5116391;28;20035;-77
2022/02/10 18:19:04;;;;;;;20.45;10.30;;;;;;;6.68;100.00;100692.34;5115652;28;20508;-77
2022/02/10 18:21:54;;;;;;;21.10;9.82;;;;;;;6.69;100.00;100689.63;5115224;28;20039;-77
2022/02/10 18:27:21;;;;;;;20.90;11.00;;;;;;;6.72;100.00;100694.81;5116120;28;20040;-77
2022/02/10 18:30:14;;;;;;;15.00;9.30;;;;;;;6.70;100.00;100699.31;5113161;28;20028;-78
2022/02/10 19:06:59;;;;;;;19.38;10.90;;;;;;;6.45;100.00;100669.31;5115111;28;20047;-75
2022/02/10 19:09:33;;;;;;;22.77;11.45;;;;;;;6.39;100.00;100669.56;5114953;28;20053;-72
2022/02/10 19:12:04;;;;;;;25.90;12.13;;;;;;;6.37;100.00;100682.88;5097303;28;20467;-74
2022/02/10 19:14:37;;;;;;;21.27;12.00;;;;;;;6.35;100.00;100674.09;5113840;28;20081;-76
2022/02/10 19:17:06;;;;;;;24.88;11.90;;;;;;;6.35;100.00;100678.53;5115367;28;20054;-78
2022/02/10 19:19:38;;;;;;;20.27;11.50;;;;;;;6.26;100.00;100675.28;5115174;28;20169;-76
2022/02/10 19:22:11;;;;;;;22.60;12.27;;;;;;;6.21;100.00;100681.69;5114567;28;20047;-82
2022/02/10 19:24:40;;;;;;;21.38;12.40;;;;;;;6.12;100.00;100682.88;5114622;28;20063;-76
2022/02/10 19:27:09;;;;;;;25.92;12.35;;;;;;;6.05;100.00;100686.63;5114819;28;20064;-77
2022/02/10 19:29:40;;;;;;;21.98;12.38;;;;;;;5.99;100.00;100676.28;5114541;28;20048;-77
2022/02/10 19:32:12;;;;;;;22.52;12.00;;;;;;;5.96;100.00;100682.53;5114522;28;20067;-77
2022/02/10 19:34:46;;;;;;;25.52;12.82;;;;;;;5.93;100.00;100687.06;5115016;28;20129;-77
2022/02/10 19:37:23;;;;;;;24.52;12.88;;;;;;;5.90;100.00;100687.16;5114333;28;20093;-77
2022/02/10 19:39:56;;;;;;;25.77;12.40;;;;;;;5.86;100.00;100685.50;5114792;28;20089;-78
2022/02/10 19:42:29;;;;;;;24.55;13.13;;;;;;;5.82;100.00;100678.59;5096016;28;20044;-77
2022/02/10 19:45:00;;;;;;;23.98;13.55;;;;;;;5.79;100.00;100689.28;5114799;28;20051;-75
2022/02/10 19:47:31;;;;;;;27.35;13.10;;;;;;;5.72;100.00;100678.91;5113672;28;20067;-76
2022/02/10 19:50:09;;;;;;;27.27;12.43;;;;;;;5.66;100.00;100680.88;5114665;28;20048;-81
2022/02/10 19:52:40;;;;;;;26.08;13.65;;;;;;;5.62;100.00;100682.78;5114260;28;20035;-77
2022/02/10 19:55:14;;;;;;;25.60;13.10;;;;;;;5.57;100.00;100687.34;5114332;28;20047;-78
2022/02/10 19:57:44;;;;;;;25.55;13.70;;;;;;;5.55;100.00;100681.25;5114004;28;20039;-80
2022/02/10 20:00:32;;;;;;;26.92;13.55;;;;;;;5.55;100.00;100691.81;5071038;28;20099;-82
2022/02/10 20:03:07;;;;;;;24.90;14.00;;;;;;;5.52;100.00;100694.56;5070935;28;20517;-79
2022/02/10 20:05:45;;;;;;;23.48;12.98;;;;;;;5.55;100.00;100697.13;5070972;28;20057;-78
2022/02/10 20:08:15;;;;;;;26.33;13.52;;;;;;;5.56;100.00;100692.69;5071570;28;20482;-80
2022/02/10 20:10:45;;;;;;;28.83;14.77;;;;;;;5.59;100.00;100689.94;5053900;28;20076;-77
2022/02/10 20:13:16;;;;;;;34.25;14.10;;;;;;;5.60;100.00;100695.19;5070747;28;20436;-78
2022/02/10 20:15:47;;;;;;;26.30;14.32;;;;;;;5.53;100.00;100688.38;5070960;28;20063;-81
2022/02/10 20:18:15;;;;;;;26.10;14.55;;;;;;;5.47;100.00;100686.78;5054311;28;20053;-78
2022/02/10 20:21:08;;;;;;;25.60;14.13;;;;;;;5.52;100.00;100691.06;5071119;28;20048;-82
2022/02/10 20:23:37;;;;;;;26.80;14.77;;;;;;;5.48;100.00;100685.00;5070625;28;20556;-83
2022/02/10 20:26:11;;;;;;;28.67;14.73;;;;;;;5.41;100.00;100679.06;5070016;28;20052;-79
2022/02/10 20:28:56;;;;;;;29.50;15.70;;;;;;;5.41;100.00;100683.47;4997794;28;20054;-80
2022/02/10 20:31:25;;;;;;;28.35;15.30;;;;;;;5.35;100.00;100684.53;5010737;28;20186;-83
2022/02/10 20:33:55;;;;;;;26.05;15.15;;;;;;;5.32;100.00;100687.28;5010822;28;20066;-81
2022/02/10 20:36:25;;;;;;;27.02;14.60;;;;;;;5.36;100.00;100690.69;5011112;28;20459;-78
2022/02/10 20:38:59;;;;;;;28.45;15.63;;;;;;;5.38;100.00;100696.78;5011000;28;20049;-81
2022/02/10 20:41:33;;;;;;;28.98;15.85;;;;;;;5.37;100.00;100687.13;5011114;28;20062;-78
2022/02/10 20:44:04;;;;;;;25.00;14.38;;;;;;;5.37;100.00;100693.28;5010595;28;20450;-80
2022/02/10 20:46:40;;;;;;;31.02;15.57;;;;;;;5.36;100.00;100682.75;5010403;28;20053;-79
2022/02/10 20:49:16;;;;;;;31.02;15.90;;;;;;;5.40;100.00;100687.00;5010741;28;20108;-80
2022/02/10 20:51:49;;;;;;;30.95;15.90;;;;;;;5.38;100.00;100684.41;5010636;28;20193;-80
2022/02/10 20:54:18;;;;;;;27.20;15.87;;;;;;;5.45;100.00;100679.81;5010238;28;20054;-77
2022/02/10 20:56:49;;;;;;;27.48;15.82;;;;;;;5.44;100.00;100688.66;5010561;28;20480;-80
2022/02/10 20:59:23;;;;;;;31.23;15.18;;;;;;;5.39;100.00;100685.28;5010617;28;20068;-83
2022/02/10 21:01:58;;;;;;;28.17;15.23;;;;;;;5.34;100.00;100677.50;5010302;28;20049;-83
2022/02/10 21:04:31;;;;;;;29.88;16.02;;;;;;;5.35;100.00;100681.03;5010424;28;20038;-77
2022/02/10 21:07:08;;;;;;;27.95;15.20;;;;;;;5.31;100.00;100682.03;5068186;28;20048;-78
2022/02/10 21:09:41;;;;;;;29.20;15.40;;;;;;;5.21;100.00;100677.94;5092849;28;20036;-77
2022/02/10 21:12:12;;;;;;;31.02;16.60;;;;;;;5.15;100.00;100677.22;5092299;28;20550;-76
2022/02/10 21:14:41;;;;;;;29.95;16.15;;;;;;;5.09;100.00;100672.09;5091916;28;20105;-78
2022/02/10 21:17:12;;;;;;;33.67;15.57;;;;;;;5.02;100.00;100675.88;5092097;28;20040;-77
2022/02/10 21:19:42;;;;;;;28.90;16.40;;;;;;;4.99;100.00;100677.72;5107360;28;20055;-77
2022/02/10 21:22:16;;;;;;;30.55;16.00;;;;;;;5.08;100.00;100674.81;5114014;28;20040;-74
2022/02/10 21:24:51;;;;;;;33.80;16.65;;;;;;;5.01;100.00;100674.13;5114026;28;20451;-78
2022/02/10 21:27:32;;;;;;;29.40;16.45;;;;;;;4.98;100.00;100684.78;5114099;28;20043;-77
2022/02/10 21:30:03;;;;;;;28.13;15.98;;;;;;;4.94;100.00;100683.16;5113313;28;20054;-76
2022/02/10 21:32:48;;;;;;;27.98;15.95;;;;;;;4.88;100.00;100678.91;5113545;28;20446;-77
2022/02/10 21:35:29;;;;;;;33.95;16.27;;;;;;;4.91;100.00;100687.66;5113742;28;20044;-75
2022/02/10 21:38:09;;;;;;;32.50;17.13;;;;;;;4.91;100.00;100704.38;5112970;28;20043;-76
2022/02/10 21:41:03;;;;;;;32.97;17.13;;;;;;;5.25;100.00;100704.25;5113594;28;20400;-77
2022/02/10 21:53:04;;;;;;;31.65;17.42;;;;;;;4.72;100.00;100697.91;5113799;28;20046;-74
2022/02/10 21:55:52;;;;;;;37.83;19.05;;;;;;;4.59;100.00;100706.19;5095098;28;20160;-74
2022/02/10 21:59:08;;;;;;;38.20;18.35;;;;;;;4.50;100.00;100697.66;5113542;28;20381;-74
2022/02/10 22:09:58;;;;;;;46.78;20.20;;;;;;;4.35;100.00;100704.25;5076567;28;20556;-78
2022/02/10 22:20:58;;;;;;;48.10;22.23;;;;;;;4.65;100.00;100717.53;5099760;28;20408;-74
2022/02/10 22:23:29;;;;;;;41.40;22.40;;;;;;;4.37;100.00;100704.22;5113427;28;20069;-74
2022/02/10 22:26:01;;;;;;;40.30;22.33;;;;;;;4.60;100.00;100705.28;5113056;28;20083;-74
2022/02/10 22:28:42;;;;;;;46.33;22.42;;;;;;;4.63;100.00;100691.13;5113028;28;20035;-73
2022/02/10 22:31:38;;;;;;;47.33;24.60;;;;;;;4.61;100.00;100716.72;5112990;28;20048;-76
2022/02/10 22:34:16;;;;;;;51.35;26.25;;;;;;;4.63;100.00;100706.97;5112892;28;20048;-74
2022/02/10 22:36:54;;;;;;;51.58;26.33;;;;;;;4.82;100.00;100704.66;5113155;28;20039;-75
2022/02/10 22:39:24;;;;;;;48.33;25.45;;;;;;;4.90;100.00;100700.03;5112936;28;20047;-75
2022/02/10 22:41:57;;;;;;;47.58;25.70;;;;;;;4.89;100.00;100707.09;5112588;28;20448;-75
2022/02/10 22:44:31;;;;;;;60.20;28.95;;;;;;;4.83;100.00;100703.78;5112784;28;20075;-75
2022/02/10 22:47:04;;;;;;;61.65;30.25;;;;;;;4.80;100.00;100695.91;5112526;28;20054;-75
2022/02/10 22:49:32;;;;;;;59.67;28.85;;;;;;;4.64;100.00;100697.28;5113525;28;20070;-75
2022/02/10 22:52:01;;;;;;;61.40;29.83;;;;;;;4.29;100.00;100693.84;5116112;28;20089;-75
2022/02/10 22:54:30;;;;;;;63.28;31.40;;;;;;;4.44;100.00;100698.72;5116496;28;20039;-75
2022/02/10 22:56:59;;;;;;;71.45;33.30;;;;;;;4.50;100.00;100692.38;5116396;28;20116;-75
2022/02/10 22:59:29;;;;;;;61.83;29.73;;;;;;;4.33;100.00;100692.84;5116695;28;20074;-75
2022/02/10 23:01:58;;;;;;;61.78;30.67;;;;;;;4.16;100.00;100692.47;5116230;28;20142;-75
2022/02/10 23:04:26;;;;;;;62.67;30.27;;;;;;;3.97;100.00;100690.31;5116386;28;20063;-74
2022/02/10 23:06:58;;;;;;;57.83;28.17;;;;;;;4.16;100.00;100687.19;5115817;28;20047;-77
2022/02/10 23:09:40;;;;;;;62.33;31.17;;;;;;;4.01;100.00;100685.81;5116540;28;20473;-74
2022/02/10 23:12:11;;;;;;;70.70;33.95;;;;;;;4.06;100.00;100686.56;5116257;28;20088;-74
2022/02/10 23:14:40;;;;;;;61.80;29.88;;;;;;;4.06;100.00;100683.06;5116079;28;20485;-74
2022/02/10 23:17:08;;;;;;;58.33;30.23;;;;;;;3.96;100.00;100690.34;5115632;28;20051;-74
2022/02/10 23:19:39;;;;;;;57.40;28.13;;;;;;;3.93;100.00;100691.28;5098357;28;20051;-74
2022/02/10 23:22:07;;;;;;;56.95;28.63;;;;;;;4.01;100.00;100689.31;5116101;28;20071;-75
2022/02/10 23:24:39;;;;;;;56.20;27.52;;;;;;;4.08;100.00;100690.03;5116076;28;20048;-77
2022/02/10 23:27:07;;;;;;;51.80;28.30;;;;;;;4.03;100.00;100684.84;5114683;28;20048;-75
2022/02/10 23:29:35;;;;;;;56.45;28.85;;;;;;;4.19;100.00;100689.72;5116130;28;20036;-75
2022/02/10 23:32:06;;;;;;;68.43;30.08;;;;;;;4.08;100.00;100681.25;5115486;28;20134;-75
2022/02/10 23:34:34;;;;;;;66.82;32.20;;;;;;;4.12;100.00;100690.78;5116233;28;20074;-75
2022/02/10 23:37:07;;;;;;;72.32;33.63;;;;;;;4.15;100.00;100685.41;5115674;28;20499;-75
2022/02/10 23:39:38;;;;;;;69.20;35.05;;;;;;;4.05;100.00;100689.22;5115928;28;20545;-75
2022/02/10 23:42:13;;;;;;;72.68;35.42;;;;;;;3.96;100.00;100685.94;5115747;28;20157;-74
2022/02/10 23:44:44;;;;;;;66.05;33.72;;;;;;;4.05;100.00;100692.72;5115640;28;20040;-74
2022/02/10 23:47:19;;;;;;;74.72;35.35;;;;;;;4.04;100.00;100693.63;5115174;28;20058;-75
2022/02/10 23:49:50;;;;;;;67.35;34.00;;;;;;;3.94;100.00;100687.72;5115589;28;20050;-74
2022/02/10 23:52:20;;;;;;;63.67;33.45;;;;;;;3.83;100.00;100696.84;5115519;28;20392;-73
2022/02/10 23:54:53;;;;;;;66.63;31.83;;;;;;;3.81;100.00;100691.59;5115637;28;20138;-74
2022/02/10 23:57:29;;;;;;;;;;;;;;;3.76;100.00;100690.84;5115560;28;20394;-74
